Huvudsida
METAR-TAF:

METAR-TAF

Flygplatser :

Bujumbura International Airport

Bujumbura, Burundi

latitud: 03-19S, longitud: 029-19E, höjd: 782 m

METAR: saknas

Tid: 11:55 (09:55 UTC)

Väderprognos

Denna rapport gjordes för 4 timmar och 55 minuter sedan, klockan 05:00 UTC
Prognos gäller från 19 kl. 06 UTC till 20 kl. 12 UTC
Vind 5 kt från nord
Sikt: 5000 m
torrdis
Blir
från 19 kl. 08 UTC till 19 kl. 10 UTC
Vind 12 kt från syd i byarna ända upp till 26 kt
Sikt: 7000 m
Få moln på en höjd av 3000 ft
Blir
från 19 kl. 16 UTC till 19 kl. 18 UTC
Vind 10 kt från syd
Sikt: 8000 m
Få moln på en höjd av 3500 ft

TAF: HBBA 190500Z 1906/2012 36005KT 5000 HZ NSC BECMG 1908/1910 18012G26KT 7000 FEW030 BECMG 1916/1918 18005KT CAVOK BECM 2003/2005 VRB03KT 5000 HZNSC BECM 2008/2010 18010KT 8000 FEW035

Aktuella väderrapporter och prognoser från 4000 flygplatser (METAR- och TAF-rapporter).

De tillgängliga stationerna syns som gula och röda prickar på kartan.

För musen över prickarna för att se namnen på stationerna.

Klicka sedan för att få väderrapporter och prognoser.

För att ändra kartan: Klicka på de gröna knapparna med ett svart kors på för att zooma in; den gröna knappen med ett streck på för att zooma ut; eller på de gröna pilarna för angränsande kartor.


METAR-TAF: